Time;durP1;ratioP1;P1;durP2;ratioP2;P2;SDS_P1;SDS_P2;PMS_P1;PMS_P2;Temp;Humidity;BMP_temperature;BMP_pressure;BME280_temperature;BME280_humidity;BME280_pressure;Samples;Min_cycle;Max_cycle;Signal;HPM_P1;HPM_P2
2023/02/02 00:01:58;;;;;;;15.23;3.45;;;8.60;99.90;;;;;;4097444;28;20027;-69
2023/02/02 00:03:59;;;;;;;16.70;3.47;;;8.50;99.90;;;;;;4099552;28;20484;-69
2023/02/02 00:06:00;;;;;;;16.58;3.78;;;8.50;99.90;;;;;;4094951;28;20039;-69
2023/02/02 00:08:01;;;;;;;26.85;3.40;;;8.50;99.90;;;;;;4098261;28;20023;-69
2023/02/02 00:10:01;;;;;;;25.42;4.75;;;8.50;99.90;;;;;;4098022;28;20139;-68
2023/02/02 00:12:02;;;;;;;22.02;4.10;;;8.50;99.90;;;;;;4096233;28;20086;-70
2023/02/02 00:14:02;;;;;;;21.63;3.67;;;8.50;99.90;;;;;;4094083;28;20091;-69
2023/02/02 00:16:27;;;;;;;19.92;4.38;;;8.50;99.90;;;;;;4094700;28;20043;-69
2023/02/02 00:18:28;;;;;;;17.52;3.92;;;8.40;99.90;;;;;;4093756;28;20055;-69
2023/02/02 00:20:29;;;;;;;19.13;3.97;;;8.40;99.90;;;;;;4096381;28;20082;-68
2023/02/02 00:22:29;;;;;;;24.00;4.25;;;8.40;99.90;;;;;;4100971;28;20152;-69
2023/02/02 00:24:30;;;;;;;29.40;4.43;;;8.40;99.90;;;;;;4097145;28;20066;-69
2023/02/02 00:26:30;;;;;;;19.85;4.22;;;8.40;99.90;;;;;;4096485;28;20611;-69
2023/02/02 00:28:31;;;;;;;18.40;3.50;;;8.30;99.90;;;;;;4097748;28;20043;-69
2023/02/02 00:30:32;;;;;;;17.15;4.10;;;8.30;99.90;;;;;;4093016;28;20122;-69
2023/02/02 00:32:32;;;;;;;23.60;4.57;;;8.30;99.90;;;;;;4093288;28;20051;-69
2023/02/02 00:34:33;;;;;;;24.90;4.68;;;8.30;99.90;;;;;;4098053;28;20032;-69
2023/02/02 00:36:33;;;;;;;18.90;3.70;;;8.30;99.90;;;;;;4094212;28;20498;-69
2023/02/02 00:38:36;;;;;;;18.00;4.30;;;8.30;99.90;;;;;;4096469;28;20047;-69
2023/02/02 00:40:37;;;;;;;16.77;3.85;;;8.30;99.90;;;;;;4095340;28;20053;-70
2023/02/02 00:42:37;;;;;;;19.77;3.95;;;8.30;99.90;;;;;;4091163;28;20141;-70
2023/02/02 00:46:57;;;;;;;25.40;4.03;;;8.20;99.90;;;;;;4097524;28;20061;-70
2023/02/02 00:48:58;;;;;;;13.50;3.70;;;8.20;99.90;;;;;;4096729;28;20501;-70
2023/02/02 00:50:58;;;;;;;17.80;3.75;;;8.20;99.90;;;;;;4096158;28;20521;-70
2023/02/02 00:52:59;;;;;;;20.33;4.53;;;8.20;99.90;;;;;;4095846;28;21521;-70
2023/02/02 00:54:59;;;;;;;20.92;4.40;;;8.20;99.90;;;;;;4097332;28;20403;-70
2023/02/02 00:57:00;;;;;;;19.85;4.50;;;8.20;99.90;;;;;;4097436;28;20446;-69
2023/02/02 00:59:01;;;;;;;18.15;4.22;;;8.20;99.90;;;;;;4092917;28;20039;-70
2023/02/02 01:01:02;;;;;;;15.10;3.88;;;8.20;99.90;;;;;;4099368;28;20422;-69
2023/02/02 01:03:03;;;;;;;23.80;4.15;;;8.20;99.90;;;;;;4095473;28;20035;-70
2023/02/02 01:05:04;;;;;;;16.98;3.90;;;8.20;99.90;;;;;;4095390;28;20411;-71
2023/02/02 01:07:05;;;;;;;18.83;3.65;;;8.30;99.90;;;;;;4094544;28;20038;-70
2023/02/02 01:09:05;;;;;;;25.70;3.97;;;8.30;99.90;;;;;;4094920;28;20051;-70
2023/02/02 01:11:06;;;;;;;20.17;4.15;;;8.30;99.90;;;;;;4096411;28;20065;-69
2023/02/02 01:13:07;;;;;;;23.65;4.53;;;8.30;99.90;;;;;;4091140;28;20035;-70
2023/02/02 01:15:09;;;;;;;21.52;4.32;;;8.30;99.90;;;;;;4096837;28;20027;-71
2023/02/02 01:17:10;;;;;;;16.10;3.38;;;8.30;99.90;;;;;;4098516;28;20035;-70
2023/02/02 01:19:15;;;;;;;24.23;4.47;;;8.20;99.90;;;;;;4094496;28;20047;-70
2023/02/02 01:21:16;;;;;;;19.13;3.80;;;8.20;99.90;;;;;;4092950;28;20050;-70
2023/02/02 01:23:16;;;;;;;20.05;3.97;;;8.30;99.90;;;;;;4098650;28;20174;-70
2023/02/02 01:25:17;;;;;;;19.70;4.22;;;8.30;99.90;;;;;;4095007;28;20039;-70
2023/02/02 01:27:18;;;;;;;17.83;3.88;;;8.30;99.90;;;;;;4092479;28;20055;-70
2023/02/02 01:29:19;;;;;;;18.73;4.18;;;8.20;99.90;;;;;;4097598;28;20434;-70
2023/02/02 01:31:20;;;;;;;20.40;3.90;;;8.30;99.90;;;;;;4099458;28;20042;-70
2023/02/02 01:33:21;;;;;;;20.80;3.83;;;8.30;99.90;;;;;;4094698;28;20110;-70
2023/02/02 01:35:21;;;;;;;18.35;4.32;;;8.30;99.90;;;;;;4093420;28;20043;-70
2023/02/02 01:37:22;;;;;;;17.15;3.70;;;8.30;99.90;;;;;;4094568;28;20174;-70
2023/02/02 01:39:22;;;;;;;11.43;3.75;;;8.30;99.90;;;;;;4095001;28;20059;-70
2023/02/02 01:41:24;;;;;;;25.05;4.68;;;8.30;99.90;;;;;;4095886;28;20042;-70
2023/02/02 01:43:48;;;;;;;23.50;4.50;;;8.30;99.90;;;;;;4096924;28;20039;-71
2023/02/02 01:45:50;;;;;;;22.40;4.75;;;8.30;99.90;;;;;;4093993;28;20035;-70
2023/02/02 01:47:58;;;;;;;26.85;4.57;;;8.30;99.90;;;;;;4097921;28;20439;-70
2023/02/02 01:49:59;;;;;;;22.77;4.10;;;8.30;99.90;;;;;;4087141;29;20399;-70
2023/02/02 01:52:00;;;;;;;18.05;4.00;;;8.30;99.90;;;;;;4095992;28;20040;-70
2023/02/02 01:54:01;;;;;;;22.52;3.70;;;8.30;99.90;;;;;;4093791;28;20028;-70
2023/02/02 01:56:04;;;;;;;21.50;4.60;;;8.30;99.90;;;;;;4093040;28;20046;-69
2023/02/02 01:58:10;;;;;;;21.38;3.88;;;8.30;99.90;;;;;;4094436;28;20479;-70
2023/02/02 02:00:13;;;;;;;21.73;3.95;;;8.30;99.90;;;;;;4092651;28;20066;-70
2023/02/02 02:02:15;;;;;;;10.02;3.08;;;8.30;99.90;;;;;;4095575;28;20050;-70
2023/02/02 02:04:15;;;;;;;16.60;4.07;;;8.30;99.90;;;;;;4095152;28;20506;-70
2023/02/02 02:06:18;;;;;;;21.45;4.22;;;8.20;99.90;;;;;;4085970;28;20123;-70
2023/02/02 02:08:30;;;;;;;15.30;3.47;;;8.30;99.90;;;;;;4093719;28;20038;-70
2023/02/02 02:10:30;;;;;;;29.75;4.30;;;8.30;99.90;;;;;;4088104;28;20105;-69
2023/02/02 02:12:31;;;;;;;15.85;3.35;;;8.30;99.90;;;;;;4091063;28;20039;-69
2023/02/02 02:17:14;;;;;;;21.33;4.35;;;8.30;99.90;;;;;;4089684;28;20040;-69
2023/02/02 02:27:13;;;;;;;17.63;3.65;;;8.30;99.90;;;;;;4089150;28;20036;-69
2023/02/02 02:29:51;;;;;;;15.63;4.18;;;8.30;99.90;;;;;;4097525;28;20441;-68
2023/02/02 02:32:09;;;;;;;15.85;3.67;;;8.30;99.90;;;;;;4089111;28;20050;-69
2023/02/02 02:34:36;;;;;;;16.50;3.40;;;8.30;99.90;;;;;;4095908;28;20049;-69
2023/02/02 02:37:06;;;;;;;17.88;4.32;;;8.30;99.90;;;;;;4093528;28;20078;-69
2023/02/02 02:39:14;;;;;;;11.27;2.83;;;8.30;99.90;;;;;;4090709;28;20035;-69
2023/02/02 02:41:28;;;;;;;15.98;3.88;;;8.30;99.90;;;;;;4099255;28;20039;-69
2023/02/02 02:43:32;;;;;;;19.90;4.13;;;8.30;99.90;;;;;;4093879;28;20051;-69
2023/02/02 02:45:33;;;;;;;17.77;4.15;;;8.30;99.90;;;;;;4096833;28;20535;-70
2023/02/02 02:47:36;;;;;;;18.30;3.97;;;8.30;99.90;;;;;;4098787;28;20046;-69
2023/02/02 02:49:44;;;;;;;21.90;4.03;;;8.30;99.90;;;;;;4099901;28;20032;-69
2023/02/02 02:51:47;;;;;;;10.38;2.95;;;8.30;99.90;;;;;;4091109;28;20027;-69
2023/02/02 02:53:48;;;;;;;16.00;3.38;;;8.30;99.90;;;;;;4097501;28;20049;-69
2023/02/02 02:56:07;;;;;;;19.05;4.00;;;8.30;99.90;;;;;;4096065;28;20110;-69
2023/02/02 02:58:38;;;;;;;21.63;4.13;;;8.30;99.90;;;;;;4092971;28;20062;-69
2023/02/02 03:01:01;;;;;;;19.20;4.38;;;8.30;99.90;;;;;;4094675;28;20046;-69
2023/02/02 03:03:19;;;;;;;28.42;4.45;;;8.30;99.90;;;;;;4095012;28;20040;-68
2023/02/02 03:05:35;;;;;;;20.45;3.55;;;8.30;99.90;;;;;;4095099;28;20050;-68
2023/02/02 03:07:43;;;;;;;24.83;4.68;;;8.30;99.90;;;;;;4095876;28;20035;-69
2023/02/02 03:09:46;;;;;;;21.00;4.32;;;8.20;99.90;;;;;;4095213;28;20105;-69
2023/02/02 03:11:46;;;;;;;21.48;4.03;;;8.20;99.90;;;;;;4094968;28;20031;-69
2023/02/02 03:13:47;;;;;;;15.77;4.40;;;8.30;99.90;;;;;;4100540;28;20027;-69
2023/02/02 03:15:48;;;;;;;23.15;4.82;;;8.20;99.90;;;;;;4100754;28;20114;-68
2023/02/02 03:17:51;;;;;;;22.13;4.75;;;8.20;99.90;;;;;;4096188;28;20047;-69
2023/02/02 03:19:51;;;;;;;19.20;4.55;;;8.30;99.90;;;;;;4097495;28;20042;-69
2023/02/02 03:21:52;;;;;;;18.58;4.20;;;8.30;99.90;;;;;;4096013;28;21804;-69
2023/02/02 03:23:52;;;;;;;27.17;4.97;;;8.30;99.90;;;;;;4095609;28;20058;-69
2023/02/02 03:25:54;;;;;;;19.80;4.70;;;8.30;99.90;;;;;;4092566;28;20043;-69
2023/02/02 03:27:56;;;;;;;20.92;4.20;;;8.30;99.90;;;;;;4094863;28;20489;-69
2023/02/02 03:29:58;;;;;;;16.67;4.05;;;8.30;99.90;;;;;;4100748;28;20542;-69
2023/02/02 03:31:58;;;;;;;31.00;5.35;;;8.30;99.90;;;;;;4099685;28;20024;-69
2023/02/02 03:33:59;;;;;;;16.50;4.68;;;8.30;99.90;;;;;;4099252;28;20057;-69
2023/02/02 03:35:59;;;;;;;18.95;4.70;;;8.30;99.90;;;;;;4095334;28;20019;-69
2023/02/02 03:38:00;;;;;;;23.73;4.68;;;8.30;99.90;;;;;;4094147;28;20028;-69
2023/02/02 03:40:01;;;;;;;22.33;4.30;;;8.30;99.90;;;;;;4098333;28;20023;-68
2023/02/02 03:42:01;;;;;;;20.15;4.28;;;8.30;99.90;;;;;;4096015;28;20455;-69
2023/02/02 03:44:02;;;;;;;20.80;4.72;;;8.30;99.90;;;;;;4096451;28;20110;-68
2023/02/02 03:46:05;;;;;;;12.63;3.65;;;8.30;99.90;;;;;;4096703;28;20507;-69
2023/02/02 03:48:05;;;;;;;20.42;4.20;;;8.30;99.90;;;;;;4096031;28;20035;-68
2023/02/02 03:50:07;;;;;;;22.40;4.53;;;8.30;99.90;;;;;;4097393;28;20059;-69
2023/02/02 03:52:08;;;;;;;18.83;4.03;;;8.30;99.90;;;;;;4095793;28;20486;-69
2023/02/02 03:54:08;;;;;;;12.90;3.55;;;8.30;99.90;;;;;;4094890;28;20878;-68
2023/02/02 03:56:09;;;;;;;22.23;4.68;;;8.30;99.90;;;;;;4095986;28;20040;-68
2023/02/02 03:58:10;;;;;;;27.00;5.07;;;8.40;99.90;;;;;;4098468;28;20027;-69
2023/02/02 04:00:11;;;;;;;20.67;4.15;;;8.40;99.90;;;;;;4095641;29;20031;-70
2023/02/02 04:02:11;;;;;;;22.15;4.40;;;8.30;99.90;;;;;;4096772;28;20158;-69
2023/02/02 04:04:12;;;;;;;19.15;4.85;;;8.40;99.90;;;;;;4095443;28;20039;-69
2023/02/02 04:06:12;;;;;;;17.73;3.95;;;8.40;99.90;;;;;;4094113;28;20058;-68
2023/02/02 04:08:13;;;;;;;23.00;4.60;;;8.40;99.90;;;;;;4098173;28;20526;-69
2023/02/02 04:10:14;;;;;;;21.80;4.82;;;8.40;99.90;;;;;;4095179;28;20040;-69
2023/02/02 04:12:14;;;;;;;16.98;4.05;;;8.40;99.90;;;;;;4095434;28;20098;-69
2023/02/02 04:14:15;;;;;;;24.13;4.05;;;8.40;99.90;;;;;;4099563;28;20556;-69
2023/02/02 04:16:15;;;;;;;17.67;4.03;;;8.40;99.90;;;;;;4094825;28;20058;-69
2023/02/02 04:18:16;;;;;;;20.65;4.38;;;8.40;99.90;;;;;;4096074;28;20031;-68
2023/02/02 04:20:16;;;;;;;13.07;3.65;;;8.50;99.90;;;;;;4093034;28;20126;-69
2023/02/02 04:22:17;;;;;;;27.67;4.70;;;8.50;99.90;;;;;;4098484;28;20038;-69
2023/02/02 04:24:18;;;;;;;18.60;3.90;;;8.50;99.90;;;;;;4095775;28;20058;-68
2023/02/02 04:26:18;;;;;;;15.60;3.42;;;8.50;99.90;;;;;;4093501;28;20387;-69
2023/02/02 04:28:20;;;;;;;15.48;4.25;;;8.50;99.90;;;;;;4091318;28;20845;-69
2023/02/02 04:30:20;;;;;;;18.70;3.72;;;8.50;99.90;;;;;;4093255;28;20475;-69
2023/02/02 04:32:21;;;;;;;21.27;4.55;;;8.50;99.90;;;;;;4096832;28;20039;-69
2023/02/02 04:34:21;;;;;;;13.68;3.40;;;8.50;99.90;;;;;;4095868;28;20039;-69
2023/02/02 04:36:22;;;;;;;16.38;3.47;;;8.40;99.90;;;;;;4095077;28;20035;-69
2023/02/02 04:38:23;;;;;;;11.15;3.17;;;8.50;99.90;;;;;;4093425;28;20386;-69
2023/02/02 04:40:23;;;;;;;14.68;3.78;;;8.50;99.90;;;;;;4090250;28;20043;-69
2023/02/02 04:42:24;;;;;;;22.15;3.80;;;8.50;99.90;;;;;;4094769;28;20059;-69
2023/02/02 04:44:24;;;;;;;18.23;3.70;;;8.50;99.90;;;;;;4095905;28;20059;-69
2023/02/02 04:46:26;;;;;;;16.35;3.35;;;8.50;99.90;;;;;;4095422;28;20035;-69
2023/02/02 04:48:27;;;;;;;17.17;3.67;;;8.50;99.90;;;;;;4096069;28;20442;-69
2023/02/02 04:50:28;;;;;;;14.30;3.78;;;8.50;99.90;;;;;;4095462;28;20184;-69
2023/02/02 04:52:29;;;;;;;17.38;3.55;;;8.50;99.90;;;;;;4095474;28;20054;-69
2023/02/02 04:54:30;;;;;;;18.27;4.57;;;8.50;99.90;;;;;;4092064;28;20039;-69
2023/02/02 04:56:30;;;;;;;22.75;4.82;;;8.50;99.90;;;;;;4098877;28;20117;-69
2023/02/02 04:58:31;;;;;;;19.15;4.53;;;8.50;99.90;;;;;;4097863;28;20070;-69
2023/02/02 05:00:32;;;;;;;15.20;3.28;;;8.50;99.90;;;;;;4089542;28;20070;-69
2023/02/02 05:02:38;;;;;;;25.70;4.22;;;8.50;99.90;;;;;;4091127;28;20520;-69
2023/02/02 05:04:39;;;;;;;18.20;3.53;;;8.50;99.90;;;;;;4084987;28;20047;-69
2023/02/02 05:06:39;;;;;;;27.48;4.45;;;8.50;99.90;;;;;;4090879;28;20042;-69
2023/02/02 05:08:42;;;;;;;25.08;4.47;;;8.40;99.90;;;;;;4092019;28;20074;-69
2023/02/02 05:10:42;;;;;;;21.77;4.30;;;8.50;99.90;;;;;;4093422;28;20062;-70
2023/02/02 05:12:43;;;;;;;26.55;4.78;;;8.50;99.90;;;;;;4088819;28;20035;-69
2023/02/02 05:14:43;;;;;;;14.25;3.50;;;8.40;99.90;;;;;;4091820;28;20418;-69
2023/02/02 05:16:44;;;;;;;24.15;4.65;;;8.40;99.90;;;;;;4094856;28;20091;-69
2023/02/02 05:18:54;;;;;;;21.90;4.55;;;8.50;99.90;;;;;;4094042;28;20045;-70
2023/02/02 05:20:54;;;;;;;15.27;3.95;;;8.40;99.90;;;;;;4074873;28;20106;-69
2023/02/02 05:22:55;;;;;;;15.27;3.90;;;8.50;99.90;;;;;;4093870;28;20051;-70
2023/02/02 05:24:56;;;;;;;17.73;3.15;;;8.50;99.90;;;;;;4083790;28;20557;-69
2023/02/02 05:26:59;;;;;;;25.65;4.70;;;8.50;99.90;;;;;;4091879;28;20123;-70
2023/02/02 05:28:59;;;;;;;25.10;4.30;;;8.40;99.90;;;;;;4078514;29;20522;-70
2023/02/02 05:31:05;;;;;;;24.63;4.30;;;8.40;99.90;;;;;;4092695;28;20094;-69
2023/02/02 05:33:06;;;;;;;21.38;4.40;;;8.50;99.90;;;;;;4092304;28;20035;-69
2023/02/02 05:35:07;;;;;;;20.73;4.18;;;8.50;99.90;;;;;;4079062;29;20853;-70
2023/02/02 05:37:08;;;;;;;16.60;4.28;;;8.50;99.90;;;;;;4090828;28;20039;-69
2023/02/02 05:39:09;;;;;;;24.67;4.70;;;8.50;99.90;;;;;;4087136;28;20061;-70
2023/02/02 05:41:10;;;;;;;24.88;4.03;;;8.50;99.90;;;;;;4094555;28;20063;-69
2023/02/02 05:43:10;;;;;;;25.63;5.22;;;8.50;99.90;;;;;;4090483;28;20102;-70
2023/02/02 05:45:11;;;;;;;20.17;3.78;;;8.50;99.90;;;;;;4094832;28;20039;-71
2023/02/02 05:47:12;;;;;;;18.50;4.53;;;8.50;99.90;;;;;;4095964;28;20098;-69
2023/02/02 05:49:13;;;;;;;17.73;3.97;;;8.50;99.90;;;;;;4095391;28;20661;-69
2023/02/02 05:51:27;;;;;;;17.55;3.53;;;8.40;99.90;;;;;;4090576;28;20034;-70
2023/02/02 05:53:29;;;;;;;25.67;4.53;;;8.50;99.90;;;;;;4094511;28;20042;-70
2023/02/02 05:55:30;;;;;;;22.15;4.47;;;8.50;99.90;;;;;;4095472;28;20132;-70
2023/02/02 05:57:31;;;;;;;18.33;4.05;;;8.50;99.90;;;;;;4087871;28;20109;-70
2023/02/02 05:59:31;;;;;;;22.38;5.07;;;8.50;99.90;;;;;;4092880;28;20535;-70
2023/02/02 06:01:32;;;;;;;26.90;4.53;;;8.50;99.90;;;;;;4091774;28;20142;-70
2023/02/02 06:03:33;;;;;;;20.30;4.40;;;8.50;99.90;;;;;;4079225;28;20204;-70
2023/02/02 06:05:33;;;;;;;13.65;3.85;;;8.60;99.90;;;;;;4091521;28;20050;-69
2023/02/02 06:07:34;;;;;;;22.65;4.45;;;8.50;99.90;;;;;;4093443;28;20034;-69
2023/02/02 06:09:35;;;;;;;15.57;3.55;;;8.50;99.90;;;;;;4089894;28;20051;-69
2023/02/02 06:11:35;;;;;;;19.73;4.22;;;8.50;99.90;;;;;;4085932;28;20040;-68
2023/02/02 06:13:36;;;;;;;18.67;4.30;;;8.60;99.90;;;;;;4087653;28;20323;-68
2023/02/02 06:15:37;;;;;;;21.50;3.80;;;8.50;99.90;;;;;;4086019;28;20111;-69
2023/02/02 06:17:37;;;;;;;19.92;4.38;;;8.50;99.90;;;;;;4088091;28;20055;-69
2023/02/02 06:19:38;;;;;;;18.48;3.42;;;8.50;99.90;;;;;;4091215;28;20042;-69
2023/02/02 06:21:38;;;;;;;16.00;3.45;;;8.50;99.90;;;;;;4086740;28;20048;-69
2023/02/02 06:23:44;;;;;;;26.00;5.07;;;8.60;99.90;;;;;;4088075;28;20135;-69
2023/02/02 06:25:45;;;;;;;19.17;4.85;;;8.50;99.90;;;;;;4083353;28;20040;-69
2023/02/02 06:27:45;;;;;;;16.25;4.18;;;8.50;99.90;;;;;;4092502;28;20038;-69
2023/02/02 06:29:46;;;;;;;17.83;4.25;;;8.50;99.90;;;;;;4090178;28;20055;-70
2023/02/02 06:31:47;;;;;;;21.92;4.63;;;8.50;99.90;;;;;;4088462;28;20035;-70
2023/02/02 06:33:53;;;;;;;21.10;4.95;;;8.50;99.90;;;;;;4091960;28;20031;-69
2023/02/02 06:35:58;;;;;;;18.15;4.25;;;8.50;99.90;;;;;;4089557;28;20071;-69
2023/02/02 06:37:59;;;;;;;20.15;4.68;;;8.60;99.90;;;;;;4090172;28;20042;-70
2023/02/02 06:39:59;;;;;;;20.23;4.55;;;8.50;99.90;;;;;;4091991;28;20039;-69
2023/02/02 06:42:00;;;;;;;26.75;5.03;;;8.60;99.90;;;;;;4090284;28;20126;-69
2023/02/02 06:44:01;;;;;;;27.13;5.32;;;8.60;99.90;;;;;;4093088;28;20554;-70
2023/02/02 06:46:01;;;;;;;14.30;4.40;;;8.60;99.90;;;;;;4090261;28;20505;-69
2023/02/02 06:48:09;;;;;;;16.50;3.75;;;8.60;99.90;;;;;;4089492;28;20816;-70
2023/02/02 06:50:10;;;;;;;19.98;4.50;;;8.60;99.90;;;;;;4084085;28;20040;-69
2023/02/02 06:52:11;;;;;;;25.35;5.20;;;8.60;99.90;;;;;;4092605;28;20034;-69
2023/02/02 06:54:11;;;;;;;16.52;4.55;;;8.60;99.90;;;;;;4093096;28;20494;-69
2023/02/02 06:56:12;;;;;;;21.73;4.63;;;8.60;99.90;;;;;;4090018;28;20495;-69
2023/02/02 06:58:13;;;;;;;17.45;4.85;;;8.60;99.90;;;;;;4090290;28;20442;-70
2023/02/02 07:00:14;;;;;;;11.23;4.25;;;8.60;99.90;;;;;;4089476;28;20042;-69
2023/02/02 07:02:14;;;;;;;23.58;5.15;;;8.60;99.90;;;;;;4089152;28;20133;-69
2023/02/02 07:04:18;;;;;;;16.75;4.50;;;8.60;99.90;;;;;;4092583;28;20039;-69
2023/02/02 07:06:21;;;;;;;25.95;5.13;;;8.60;99.90;;;;;;4089035;28;20041;-69
2023/02/02 07:08:22;;;;;;;21.58;5.53;;;8.60;99.90;;;;;;4090391;28;20379;-69
2023/02/02 07:10:22;;;;;;;20.65;4.97;;;8.60;99.90;;;;;;4089989;28;20039;-69
2023/02/02 07:12:23;;;;;;;26.48;4.97;;;8.60;99.90;;;;;;4085154;28;20042;-69
2023/02/02 07:14:24;;;;;;;27.50;4.60;;;8.60;99.90;;;;;;4078017;28;20047;-68
2023/02/02 07:16:25;;;;;;;12.43;3.75;;;8.60;99.90;;;;;;4089398;28;20035;-69
2023/02/02 07:18:25;;;;;;;20.10;4.65;;;8.60;99.90;;;;;;4088384;28;20082;-69
2023/02/02 07:20:26;;;;;;;19.08;4.28;;;8.60;99.90;;;;;;4087229;28;20150;-69
2023/02/02 07:22:27;;;;;;;14.75;3.60;;;8.60;99.90;;;;;;4087662;28;20039;-69
2023/02/02 07:24:27;;;;;;;22.35;4.80;;;8.60;99.90;;;;;;4089997;28;20055;-69
2023/02/02 07:26:28;;;;;;;21.45;4.80;;;8.60;99.90;;;;;;4086490;28;20043;-69
2023/02/02 07:28:29;;;;;;;15.38;4.00;;;8.60;99.90;;;;;;4090335;28;20043;-68
2023/02/02 07:30:29;;;;;;;17.67;4.70;;;8.60;99.90;;;;;;4086755;28;20122;-69
2023/02/02 07:32:30;;;;;;;19.30;4.47;;;8.60;99.90;;;;;;4091448;28;20044;-69
2023/02/02 07:34:31;;;;;;;17.63;4.30;;;8.60;99.90;;;;;;4088315;28;20039;-68
2023/02/02 07:36:32;;;;;;;20.27;4.82;;;8.60;99.90;;;;;;4088902;28;20069;-69
2023/02/02 07:38:32;;;;;;;22.08;4.47;;;8.60;99.90;;;;;;4086939;28;20046;-69
2023/02/02 07:40:33;;;;;;;22.92;4.55;;;8.60;99.90;;;;;;4086279;28;20043;-69
2023/02/02 07:42:33;;;;;;;20.55;4.68;;;8.60;99.90;;;;;;4089105;28;20046;-69
2023/02/02 07:44:34;;;;;;;16.00;4.28;;;8.60;99.90;;;;;;4088588;28;20778;-68
2023/02/02 07:46:34;;;;;;;13.35;3.72;;;8.50;99.90;;;;;;4086656;28;20062;-69
2023/02/02 07:48:36;;;;;;;13.50;4.53;;;8.50;99.90;;;;;;4081255;28;20039;-69
2023/02/02 07:50:36;;;;;;;16.23;4.60;;;8.50;99.90;;;;;;4074151;29;20048;-69
2023/02/02 07:52:37;;;;;;;13.02;3.40;;;8.50;99.90;;;;;;4082263;28;20513;-69
2023/02/02 07:54:37;;;;;;;19.95;4.63;;;8.50;99.90;;;;;;4082500;28;20171;-69
2023/02/02 07:56:38;;;;;;;15.80;3.85;;;8.50;99.90;;;;;;4085207;28;20831;-69
2023/02/02 07:58:40;;;;;;;24.05;4.40;;;8.50;99.90;;;;;;4090371;28;20778;-69
2023/02/02 08:00:41;;;;;;;19.63;4.25;;;8.50;99.90;;;;;;4082175;28;20400;-68
2023/02/02 08:02:41;;;;;;;15.38;3.75;;;8.50;99.90;;;;;;4090471;28;20030;-68
2023/02/02 08:04:42;;;;;;;19.10;4.45;;;8.50;99.90;;;;;;4083906;28;20048;-68
2023/02/02 08:06:43;;;;;;;13.68;3.75;;;8.50;99.90;;;;;;4079620;28;20153;-68
2023/02/02 08:08:43;;;;;;;16.90;4.32;;;8.50;99.90;;;;;;4079783;28;20073;-68
2023/02/02 08:10:51;;;;;;;18.50;5.05;;;8.50;99.90;;;;;;4087618;28;20039;-68
2023/02/02 08:12:52;;;;;;;17.27;4.20;;;8.50;99.90;;;;;;4086046;28;20043;-68
2023/02/02 08:14:52;;;;;;;15.40;4.05;;;8.50;99.90;;;;;;4089745;28;20027;-68
2023/02/02 08:16:53;;;;;;;24.65;4.28;;;8.50;99.90;;;;;;4090732;28;20045;-68
2023/02/02 08:18:54;;;;;;;18.92;4.07;;;8.40;99.90;;;;;;4089154;28;20569;-68
2023/02/02 08:20:58;;;;;;;27.45;5.05;;;8.40;99.90;;;;;;4089001;28;20043;-68
2023/02/02 08:22:58;;;;;;;20.67;4.55;;;8.40;99.90;;;;;;4088380;28;20725;-68
2023/02/02 08:24:59;;;;;;;22.35;4.38;;;8.40;99.90;;;;;;4088994;28;20058;-68
2023/02/02 08:26:59;;;;;;;22.75;4.22;;;8.40;99.90;;;;;;4086965;28;20069;-68
2023/02/02 08:29:03;;;;;;;20.50;4.43;;;8.40;99.90;;;;;;4089168;28;20080;-68
2023/02/02 08:31:16;;;;;;;23.75;4.75;;;8.40;99.90;;;;;;4079235;28;20044;-68
2023/02/02 08:33:16;;;;;;;18.45;4.05;;;8.40;99.90;;;;;;4089019;28;20519;-67
2023/02/02 08:35:18;;;;;;;17.38;4.35;;;8.30;99.90;;;;;;4088464;28;20051;-68
2023/02/02 08:37:18;;;;;;;22.90;4.55;;;8.40;99.90;;;;;;4090538;28;20042;-68
2023/02/02 08:39:19;;;;;;;20.30;4.63;;;8.30;99.90;;;;;;4088978;28;20036;-68
2023/02/02 08:41:22;;;;;;;17.67;5.10;;;8.30;99.90;;;;;;4089066;28;20031;-68
2023/02/02 08:43:23;;;;;;;20.65;4.20;;;8.30;99.90;;;;;;4089693;28;20125;-68
2023/02/02 08:45:23;;;;;;;18.30;4.70;;;8.30;99.90;;;;;;4079203;28;20514;-68
2023/02/02 08:47:24;;;;;;;16.80;5.43;;;8.30;99.90;;;;;;4089599;28;20031;-68
2023/02/02 08:49:25;;;;;;;22.05;4.97;;;8.30;99.90;;;;;;4086902;28;20486;-68
2023/02/02 08:51:25;;;;;;;28.05;4.93;;;8.30;99.90;;;;;;4088155;28;20080;-68
2023/02/02 08:53:27;;;;;;;15.00;4.47;;;8.30;99.90;;;;;;4088682;28;20046;-68
2023/02/02 08:55:28;;;;;;;23.23;4.68;;;8.30;99.90;;;;;;4086614;28;20050;-68
2023/02/02 08:57:31;;;;;;;18.00;4.60;;;8.30;99.90;;;;;;4087432;28;22250;-68
2023/02/02 08:59:32;;;;;;;25.98;5.43;;;8.30;99.90;;;;;;4089320;28;20090;-68
2023/02/02 09:01:33;;;;;;;22.65;5.57;;;8.30;99.90;;;;;;4089658;28;20043;-68
2023/02/02 09:03:34;;;;;;;23.25;4.90;;;8.30;99.90;;;;;;4090680;28;20077;-68
2023/02/02 09:05:37;;;;;;;20.92;5.38;;;8.30;99.90;;;;;;4087451;28;20118;-68
2023/02/02 09:07:37;;;;;;;17.08;4.32;;;8.30;99.90;;;;;;4088162;28;20039;-69
2023/02/02 09:09:38;;;;;;;25.52;5.68;;;8.30;99.90;;;;;;4086298;28;20054;-68
2023/02/02 09:11:40;;;;;;;22.13;5.30;;;8.30;99.90;;;;;;4088767;28;20070;-68
2023/02/02 09:13:41;;;;;;;15.40;4.25;;;8.30;99.90;;;;;;4089485;28;20047;-69
2023/02/02 09:15:42;;;;;;;27.70;5.70;;;8.30;99.90;;;;;;4086500;28;20409;-68
2023/02/02 09:17:42;;;;;;;18.70;4.82;;;8.30;99.90;;;;;;4088528;28;20038;-68
2023/02/02 09:19:43;;;;;;;16.40;4.10;;;8.30;99.90;;;;;;4089388;28;20123;-69
2023/02/02 09:21:44;;;;;;;19.85;4.85;;;8.30;99.90;;;;;;4085711;28;20051;-69
2023/02/02 09:23:45;;;;;;;16.40;4.60;;;8.30;99.90;;;;;;4087322;28;20110;-69
2023/02/02 09:25:46;;;;;;;18.47;4.40;;;8.30;99.90;;;;;;4086218;28;20044;-68
2023/02/02 09:27:46;;;;;;;15.15;4.25;;;8.30;99.90;;;;;;4081737;28;20298;-68
2023/02/02 09:29:47;;;;;;;12.13;3.95;;;8.30;99.90;;;;;;4087648;28;20042;-68
2023/02/02 09:31:48;;;;;;;21.95;4.55;;;8.30;99.90;;;;;;4085810;28;20062;-68
2023/02/02 09:33:48;;;;;;;21.92;4.57;;;8.40;99.90;;;;;;4088253;28;20036;-69
2023/02/02 09:35:49;;;;;;;18.73;5.18;;;8.40;99.90;;;;;;4086294;28;20410;-68
2023/02/02 09:37:49;;;;;;;21.55;4.80;;;8.40;99.90;;;;;;4086409;28;20435;-68
2023/02/02 09:39:50;;;;;;;14.45;4.28;;;8.40;99.90;;;;;;4088128;28;20368;-69
2023/02/02 09:41:58;;;;;;;20.63;4.90;;;8.40;99.90;;;;;;4084001;28;20849;-69
2023/02/02 09:44:18;;;;;;;16.42;4.53;;;8.40;99.90;;;;;;4087992;28;20122;-69
2023/02/02 09:46:38;;;;;;;17.35;4.30;;;8.40;99.90;;;;;;4085821;28;20450;-69
2023/02/02 09:49:01;;;;;;;19.95;4.78;;;8.40;99.90;;;;;;4083892;28;20039;-69
2023/02/02 09:51:12;;;;;;;24.92;4.75;;;8.40;99.90;;;;;;4085856;28;20035;-69
2023/02/02 09:53:18;;;;;;;21.80;5.50;;;8.40;99.90;;;;;;4085856;28;20205;-69
2023/02/02 09:55:42;;;;;;;20.40;4.75;;;8.40;99.90;;;;;;4088493;28;20383;-69
2023/02/02 09:57:54;;;;;;;13.60;4.28;;;8.40;99.90;;;;;;4088250;28;20075;-69
2023/02/02 09:59:56;;;;;;;15.73;4.25;;;8.40;99.90;;;;;;4088221;28;20043;-68
2023/02/02 10:02:01;;;;;;;16.17;5.07;;;8.50;99.90;;;;;;4085818;28;20031;-68
2023/02/02 10:04:19;;;;;;;16.63;4.18;;;8.50;99.90;;;;;;4089218;28;20038;-68
2023/02/02 10:06:44;;;;;;;20.15;5.07;;;8.50;99.90;;;;;;4087109;28;20040;-68
2023/02/02 10:08:51;;;;;;;19.85;5.20;;;8.40;99.90;;;;;;4080469;28;20138;-68
2023/02/02 10:10:52;;;;;;;19.30;4.50;;;8.50;99.90;;;;;;4088074;28;20484;-68
2023/02/02 10:13:31;;;;;;;15.52;4.88;;;8.50;99.90;;;;;;4087926;28;20030;-68
2023/02/02 10:15:45;;;;;;;17.58;4.72;;;8.50;99.90;;;;;;4084322;28;20568;-69
2023/02/02 10:17:55;;;;;;;19.98;4.25;;;8.60;99.90;;;;;;4085812;28;20435;-69
2023/02/02 10:20:03;;;;;;;15.00;4.38;;;8.60;99.90;;;;;;4088546;28;20086;-68
2023/02/02 10:22:28;;;;;;;22.98;4.25;;;8.60;99.90;;;;;;4085326;28;20035;-69
2023/02/02 10:24:31;;;;;;;15.10;3.90;;;8.60;99.90;;;;;;4086782;28;20047;-69
2023/02/02 10:26:42;;;;;;;15.98;4.97;;;8.70;99.90;;;;;;4085499;28;20047;-68
2023/02/02 10:28:50;;;;;;;19.90;4.60;;;8.70;99.90;;;;;;4086670;28;20091;-69
2023/02/02 10:30:59;;;;;;;21.08;4.38;;;8.70;99.90;;;;;;4086780;28;20086;-68
2023/02/02 10:33:08;;;;;;;21.30;4.55;;;8.70;99.90;;;;;;4086830;28;20037;-68
2023/02/02 10:35:28;;;;;;;19.58;4.75;;;8.70;99.90;;;;;;4086602;28;20047;-69
2023/02/02 10:37:44;;;;;;;13.02;3.58;;;8.80;99.90;;;;;;4086317;28;20458;-68
2023/02/02 10:39:54;;;;;;;17.35;4.80;;;8.80;99.90;;;;;;4084781;28;20483;-69
2023/02/02 10:42:00;;;;;;;16.50;4.05;;;8.80;99.90;;;;;;4089552;28;20035;-69
2023/02/02 10:44:16;;;;;;;21.17;4.47;;;8.80;99.90;;;;;;4087633;28;20077;-69
2023/02/02 10:46:37;;;;;;;11.93;3.90;;;8.80;99.90;;;;;;4086451;28;20082;-69
2023/02/02 10:48:39;;;;;;;15.35;3.72;;;8.80;99.90;;;;;;4088206;28;20070;-69
2023/02/02 10:50:44;;;;;;;17.03;4.87;;;8.90;99.90;;;;;;4085947;28;20507;-69
2023/02/02 10:52:54;;;;;;;19.13;4.07;;;8.90;99.90;;;;;;4087314;28;20286;-69
2023/02/02 10:55:13;;;;;;;15.23;4.47;;;8.90;99.90;;;;;;4088339;28;20487;-69
2023/02/02 10:57:21;;;;;;;17.58;4.22;;;8.90;99.90;;;;;;4088903;28;20043;-68